createdAt,value
2022-10-17T00:00:39.227Z,77.19
2022-10-17T00:03:05.974Z,77.11
2022-10-17T00:05:32.547Z,77.65
2022-10-17T00:07:58.986Z,76.27
2022-10-17T00:10:25.478Z,76.40
2022-10-17T00:12:52.149Z,75.98
2022-10-17T00:15:20.538Z,76.64
2022-10-17T00:17:47.164Z,75.89
2022-10-17T00:20:14.201Z,77.73
2022-10-17T00:22:40.735Z,78.79
2022-10-17T00:25:07.596Z,79.66
2022-10-17T00:27:39.042Z,79.68
2022-10-17T00:30:07.573Z,78.22
2022-10-17T00:32:34.050Z,77.68
2022-10-17T00:35:00.513Z,78.95
2022-10-17T00:37:27.021Z,79.15
2022-10-17T00:39:54.268Z,77.45
2022-10-17T00:42:21.005Z,76.24
2022-10-17T00:44:47.619Z,76.93
2022-10-17T00:47:19.234Z,76.02
2022-10-17T00:49:47.323Z,76.85
2022-10-17T00:52:21.983Z,77.60
2022-10-17T00:54:54.427Z,77.42
2022-10-17T00:57:21.031Z,79.06
2022-10-17T00:59:52.684Z,79.16
2022-10-17T01:02:21.424Z,77.29
2022-10-17T01:04:51.052Z,76.73
2022-10-17T01:07:17.979Z,76.81
2022-10-17T01:09:46.174Z,77.25
2022-10-17T01:12:21.549Z,75.86
2022-10-17T01:15:08.692Z,77.27
2022-10-17T01:18:01.529Z,76.92
2022-10-17T01:21:38.950Z,76.42
2022-10-17T01:24:26.395Z,77.78
2022-10-17T01:27:23.084Z,77.26
2022-10-17T01:30:32.305Z,78.12
2022-10-17T01:33:08.132Z,78.14
2022-10-17T01:35:45.862Z,77.49
2022-10-17T01:38:23.387Z,77.64
2022-10-17T01:41:19.756Z,75.94
2022-10-17T01:43:52.887Z,75.86
2022-10-17T01:46:28.897Z,76.57
2022-10-17T01:48:59.489Z,76.83
2022-10-17T01:51:38.827Z,77.24
2022-10-17T01:54:20.526Z,77.96
2022-10-17T01:56:51.685Z,77.56
2022-10-17T01:59:22.643Z,77.53
2022-10-17T02:01:52.473Z,77.01
2022-10-17T02:04:19.608Z,77.94
2022-10-17T02:06:46.114Z,77.50
2022-10-17T02:09:27.144Z,77.74
2022-10-17T02:12:15.558Z,79.38
2022-10-17T02:15:17.195Z,79.36
2022-10-17T02:18:15.804Z,79.59
2022-10-17T02:21:02.914Z,79.39
2022-10-17T02:24:01.201Z,79.29
2022-10-17T02:26:37.888Z,79.93
2022-10-17T02:29:15.281Z,79.60
2022-10-17T02:31:48.671Z,79.42
2022-10-17T02:34:33.754Z,79.87
2022-10-17T02:37:04.916Z,80.99
2022-10-17T02:39:33.439Z,80.08
2022-10-17T02:42:04.836Z,80.42
2022-10-17T02:44:33.683Z,79.59
2022-10-17T02:47:18.077Z,78.46
2022-10-17T02:49:50.706Z,80.04
2022-10-17T02:52:34.238Z,78.51
2022-10-17T02:55:20.408Z,79.80
2022-10-17T02:57:54.520Z,81.08
2022-10-17T03:00:24.717Z,81.66
2022-10-17T03:02:53.001Z,81.70
2022-10-17T03:05:23.291Z,81.27
2022-10-17T03:07:49.933Z,82.05
2022-10-17T03:10:17.432Z,81.28
2022-10-17T03:12:44.767Z,82.95
2022-10-17T03:15:13.027Z,83.18
2022-10-17T03:17:40.908Z,82.26
2022-10-17T03:20:08.957Z,81.06
2022-10-17T03:22:36.072Z,80.21
2022-10-17T03:25:04.245Z,82.19
2022-10-17T03:27:31.188Z,82.71
2022-10-17T03:29:57.958Z,82.01
2022-10-17T03:32:24.632Z,82.75
2022-10-17T03:34:51.088Z,81.77
2022-10-17T03:37:17.589Z,82.50
2022-10-17T03:39:44.673Z,81.55
2022-10-17T03:42:11.264Z,79.58
2022-10-17T03:44:37.812Z,80.52
2022-10-17T03:47:04.437Z,82.15
2022-10-17T03:49:30.891Z,81.82
2022-10-17T03:51:57.375Z,82.84
2022-10-17T03:54:24.651Z,82.39
2022-10-17T03:56:51.207Z,80.50
2022-10-17T03:59:19.564Z,80.73
2022-10-17T04:01:55.128Z,80.76
2022-10-17T04:04:22.041Z,80.34
2022-10-17T04:06:48.458Z,80.96
2022-10-17T04:09:14.995Z,81.49
2022-10-17T04:11:52.858Z,81.25
2022-10-17T04:14:20.660Z,81.79
2022-10-17T04:16:47.214Z,81.88
2022-10-17T04:19:18.436Z,82.03
2022-10-17T04:21:46.877Z,82.90
2022-10-17T04:24:14.428Z,82.66
2022-10-17T04:27:03.802Z,82.62
2022-10-17T04:29:33.109Z,81.56
2022-10-17T04:32:25.981Z,81.52
2022-10-17T04:35:22.008Z,81.02
2022-10-17T04:37:54.673Z,83.86
2022-10-17T04:40:21.515Z,82.98
2022-10-17T04:42:50.226Z,82.24
2022-10-17T04:45:20.272Z,82.78
2022-10-17T04:47:49.310Z,84.17
2022-10-17T04:50:15.773Z,83.67
2022-10-17T04:52:42.385Z,82.71
2022-10-17T04:55:09.120Z,83.57
2022-10-17T04:57:37.419Z,83.13
2022-10-17T05:00:14.721Z,84.98
2022-10-17T05:03:03.406Z,84.42
2022-10-17T05:05:30.455Z,83.16
2022-10-17T05:07:57.492Z,84.74
2022-10-17T05:10:27.776Z,84.20
2022-10-17T05:12:54.628Z,83.00
2022-10-17T05:15:23.880Z,83.36
2022-10-17T05:17:57.652Z,82.31
2022-10-17T05:20:26.465Z,83.36
2022-10-17T05:22:53.564Z,83.67
2022-10-17T05:25:20.625Z,82.78
2022-10-17T05:27:47.115Z,82.26
2022-10-17T05:30:14.905Z,83.68
2022-10-17T05:32:43.622Z,83.18
2022-10-17T05:35:10.390Z,84.13
2022-10-17T05:37:38.534Z,82.81
2022-10-17T05:40:06.155Z,85.08
2022-10-17T05:42:33.160Z,84.96
2022-10-17T05:45:00.140Z,85.10
2022-10-17T05:47:27.164Z,84.94
2022-10-17T05:50:21.491Z,85.59
2022-10-17T05:53:01.767Z,85.49
2022-10-17T05:55:28.449Z,85.48
2022-10-17T05:57:54.976Z,85.72
2022-10-17T06:00:22.922Z,85.09
2022-10-17T06:02:55.949Z,86.04
2022-10-17T06:05:23.733Z,86.28
2022-10-17T06:07:52.443Z,85.64
2022-10-17T06:10:19.677Z,85.01
2022-10-17T06:12:46.284Z,85.90
2022-10-17T06:15:13.884Z,86.87
2022-10-17T06:17:43.383Z,86.64
2022-10-17T06:20:10.273Z,86.66
2022-10-17T06:22:37.087Z,85.37
2022-10-17T06:25:08.302Z,85.90
2022-10-17T06:27:34.877Z,86.69
2022-10-17T06:30:01.559Z,84.87
2022-10-17T06:32:30.098Z,85.86
2022-10-17T06:34:56.821Z,85.97
2022-10-17T06:37:23.503Z,86.25
2022-10-17T06:39:49.961Z,85.48
2022-10-17T06:42:20.480Z,85.48
2022-10-17T06:45:07.563Z,85.84
2022-10-17T06:48:03.155Z,84.93
2022-10-17T06:51:02.151Z,85.76
2022-10-17T06:53:30.054Z,86.05
2022-10-17T06:56:10.454Z,85.92
2022-10-17T06:58:57.265Z,85.69
2022-10-17T07:01:34.416Z,85.93
2022-10-17T07:04:03.302Z,86.11
2022-10-17T07:06:32.816Z,86.44
2022-10-17T07:09:06.815Z,85.99
2022-10-17T07:11:35.748Z,86.08
2022-10-17T07:14:02.910Z,86.48
2022-10-17T07:16:29.448Z,86.81
2022-10-17T07:19:11.705Z,86.67
2022-10-17T07:21:39.527Z,85.36
2022-10-17T07:24:07.502Z,85.52
2022-10-17T07:26:34.300Z,85.84
2022-10-17T07:29:01.867Z,84.91
2022-10-17T07:31:35.819Z,85.17
2022-10-17T07:34:02.686Z,84.49
2022-10-17T07:36:29.918Z,84.51
2022-10-17T07:38:57.886Z,85.02
2022-10-17T07:41:25.489Z,85.22
2022-10-17T07:43:52.000Z,83.79
2022-10-17T07:46:22.176Z,84.90
2022-10-17T07:48:49.427Z,84.78
2022-10-17T07:51:20.112Z,84.92
2022-10-17T07:53:48.781Z,85.70
2022-10-17T07:56:15.832Z,84.51
2022-10-17T07:58:42.470Z,83.48
2022-10-17T08:01:15.400Z,84.17
2022-10-17T08:03:44.486Z,84.94
2022-10-17T08:06:11.473Z,84.68
2022-10-17T08:08:38.080Z,84.56
2022-10-17T08:11:09.899Z,85.18
2022-10-17T08:13:37.246Z,84.21
2022-10-17T08:16:07.414Z,84.43
2022-10-17T08:18:34.688Z,84.45
2022-10-17T08:21:02.776Z,84.10
2022-10-17T08:23:29.270Z,83.99
2022-10-17T08:25:59.710Z,83.83
2022-10-17T08:28:26.216Z,83.69
2022-10-17T08:30:52.664Z,82.74
2022-10-17T08:33:19.086Z,83.04
2022-10-17T08:35:45.501Z,83.11
2022-10-17T08:38:13.360Z,82.76
2022-10-17T08:40:42.725Z,81.88
2022-10-17T08:43:42.029Z,82.80
2022-10-17T08:46:09.375Z,82.21
2022-10-17T08:48:46.282Z,82.15
2022-10-17T08:51:24.476Z,81.81
2022-10-17T08:54:09.355Z,81.28
2022-10-17T08:56:48.855Z,81.21
2022-10-17T08:59:30.051Z,81.54
2022-10-17T09:06:20.653Z,80.56
2022-10-17T09:09:00.076Z,79.91
2022-10-17T09:11:56.596Z,80.47
2022-10-17T09:14:41.051Z,80.34
2022-10-17T09:17:41.674Z,79.89
2022-10-17T09:20:15.134Z,79.62
2022-10-17T09:22:48.966Z,79.43
2022-10-17T09:25:18.560Z,79.03
2022-10-17T09:27:49.955Z,78.51
2022-10-17T09:30:43.630Z,78.59
2022-10-17T09:33:34.746Z,78.79
2022-10-17T09:36:05.818Z,79.02
2022-10-17T09:38:45.441Z,77.85
2022-10-17T09:44:16.353Z,79.01
2022-10-17T09:46:53.017Z,78.98
2022-10-17T09:49:29.221Z,78.23
2022-10-17T09:51:55.735Z,77.41
2022-10-17T09:54:26.711Z,77.51
2022-10-17T09:56:59.785Z,77.18
2022-10-17T09:59:38.765Z,77.13
2022-10-17T10:02:24.609Z,76.76
2022-10-17T10:30:48.164Z,75.17
2022-10-17T10:33:14.646Z,74.70
2022-10-17T10:35:41.117Z,75.24
2022-10-17T10:38:16.588Z,74.80
2022-10-17T10:41:01.303Z,74.27
2022-10-17T10:43:42.088Z,74.74
2022-10-17T10:46:25.665Z,75.40
2022-10-17T10:48:52.025Z,75.12
2022-10-17T10:51:24.482Z,73.43
2022-10-17T10:54:01.489Z,73.37
2022-10-17T10:56:37.224Z,73.47
2022-10-17T10:59:28.309Z,75.13
2022-10-17T11:02:02.283Z,74.95
2022-10-17T11:04:44.693Z,75.07
2022-10-17T11:07:28.902Z,72.84
2022-10-17T11:10:08.780Z,73.53
2022-10-17T11:13:13.632Z,72.56
2022-10-17T11:15:46.143Z,72.77
2022-10-17T11:18:50.384Z,71.53
2022-10-17T11:21:29.003Z,73.87
2022-10-17T11:24:15.040Z,71.79
2022-10-17T11:26:56.648Z,72.36
2022-10-17T11:29:29.108Z,71.74
2022-10-17T11:31:59.808Z,69.91
2022-10-17T11:34:31.119Z,69.25
2022-10-17T11:37:09.426Z,68.87
2022-10-17T11:39:49.413Z,72.09
2022-10-17T11:42:21.743Z,67.86
2022-10-17T11:44:52.389Z,72.00
2022-10-17T11:47:58.946Z,68.49
2022-10-17T11:53:31.248Z,69.66
2022-10-17T11:56:00.280Z,69.02
2022-10-17T11:58:41.940Z,67.72
2022-10-17T12:01:44.432Z,68.17
2022-10-17T12:04:23.007Z,67.37
2022-10-17T12:07:10.993Z,66.41
2022-10-17T12:09:54.342Z,67.12
2022-10-17T12:12:27.374Z,65.45
2022-10-17T12:14:55.591Z,64.83
2022-10-17T12:17:30.634Z,69.77
2022-10-17T12:20:37.005Z,65.96
2022-10-17T12:23:12.869Z,69.69
2022-10-17T12:25:56.942Z,70.21
2022-10-17T12:28:39.263Z,64.12
2022-10-17T12:31:33.945Z,66.76
2022-10-17T12:34:03.044Z,64.32
2022-10-17T12:36:29.586Z,63.15
2022-10-17T12:39:02.222Z,63.45
2022-10-17T12:41:44.458Z,64.65
2022-10-17T12:44:17.231Z,66.00
2022-10-17T12:46:49.083Z,66.79
2022-10-17T12:49:38.717Z,62.59
2022-10-17T12:52:11.191Z,63.75
2022-10-17T12:54:47.615Z,61.28
2022-10-17T12:57:32.038Z,62.62
2022-10-17T13:00:02.929Z,64.38
2022-10-17T13:02:31.408Z,61.27
2022-10-17T13:05:08.167Z,66.37
2022-10-17T13:07:36.539Z,64.25
2022-10-17T13:10:05.243Z,67.38
2022-10-17T13:12:40.297Z,66.40
2022-10-17T13:15:08.557Z,69.36
2022-10-17T13:17:35.175Z,65.46
2022-10-17T13:20:02.299Z,61.71
2022-10-17T13:22:32.310Z,64.12
2022-10-17T13:25:20.054Z,63.49
2022-10-17T13:28:32.381Z,62.22
2022-10-17T13:31:03.351Z,63.24
2022-10-17T13:33:55.685Z,64.55
2022-10-17T13:36:22.237Z,61.49
2022-10-17T13:38:48.709Z,62.64
2022-10-17T13:41:35.341Z,63.06
2022-10-17T13:44:09.211Z,59.84
2022-10-17T13:46:38.403Z,62.92
2022-10-17T13:49:24.450Z,60.74
2022-10-17T13:51:54.323Z,62.08
2022-10-17T13:54:33.352Z,60.95
2022-10-17T13:57:01.737Z,64.04
2022-10-17T13:59:40.077Z,59.64
2022-10-17T14:02:17.023Z,64.17
2022-10-17T14:05:15.638Z,65.66
2022-10-17T14:07:58.130Z,61.94
2022-10-17T14:10:26.897Z,62.67
2022-10-17T14:12:54.186Z,61.44
2022-10-17T14:15:28.540Z,64.11
2022-10-17T14:18:05.470Z,63.48
2022-10-17T14:21:08.265Z,63.69
2022-10-17T14:23:38.531Z,65.23
2022-10-17T14:26:14.313Z,64.71
2022-10-17T14:28:43.362Z,62.08
2022-10-17T14:31:15.639Z,63.06
2022-10-17T14:33:51.015Z,64.21
2022-10-17T14:36:18.463Z,63.86
2022-10-17T14:38:48.279Z,60.38
2022-10-17T14:41:41.895Z,63.00
2022-10-17T14:44:14.577Z,61.13
2022-10-17T14:46:49.574Z,63.44
2022-10-17T14:49:24.641Z,61.90
2022-10-17T14:52:24.069Z,61.81
2022-10-17T14:54:50.645Z,62.23
2022-10-17T14:57:29.389Z,62.53
2022-10-17T14:59:57.043Z,64.33
2022-10-17T15:02:25.746Z,62.83
2022-10-17T15:04:52.964Z,63.41
2022-10-17T15:07:21.145Z,63.05
2022-10-17T15:09:48.979Z,63.17
2022-10-17T15:12:23.172Z,62.65
2022-10-17T15:14:50.595Z,62.05
2022-10-17T15:17:20.822Z,64.91
2022-10-17T15:19:48.247Z,64.90
2022-10-17T15:22:18.080Z,63.80
2022-10-17T15:24:47.913Z,62.56
2022-10-17T15:27:19.963Z,63.46
2022-10-17T15:29:47.178Z,62.99
2022-10-17T15:32:14.033Z,62.95
2022-10-17T15:34:40.899Z,62.50
2022-10-17T15:37:16.594Z,64.28
2022-10-17T15:39:43.071Z,65.92
2022-10-17T15:42:11.875Z,63.52
2022-10-17T15:44:38.417Z,64.55
2022-10-17T15:47:05.627Z,64.68
2022-10-17T15:49:33.891Z,63.60
2022-10-17T15:52:00.307Z,65.31
2022-10-17T15:54:26.726Z,64.44
2022-10-17T15:56:55.097Z,64.62
2022-10-17T15:59:26.205Z,66.30
2022-10-17T16:01:52.785Z,66.35
2022-10-17T16:04:19.286Z,66.30
2022-10-17T16:06:45.763Z,64.48
2022-10-17T16:09:12.455Z,66.48
2022-10-17T16:11:43.536Z,65.02
2022-10-17T16:14:15.913Z,66.76
2022-10-17T16:16:42.908Z,66.29
2022-10-17T16:19:09.430Z,66.89
2022-10-17T16:21:39.090Z,67.78
2022-10-17T16:24:06.219Z,67.55
2022-10-17T16:26:32.957Z,66.72
2022-10-17T16:29:02.756Z,66.38
2022-10-17T16:31:33.110Z,68.23
2022-10-17T16:34:01.335Z,68.59
2022-10-17T16:36:28.000Z,68.10
2022-10-17T16:38:54.513Z,68.88
2022-10-17T16:41:26.685Z,69.22
2022-10-17T16:43:55.473Z,68.77
2022-10-17T16:46:23.024Z,69.02
2022-10-17T16:48:49.720Z,68.27
2022-10-17T16:51:18.384Z,69.30
2022-10-17T16:53:46.250Z,68.69
2022-10-17T16:56:15.307Z,69.22
2022-10-17T16:58:42.562Z,68.88
2022-10-17T17:01:15.615Z,67.79
2022-10-17T17:03:44.339Z,68.24
2022-10-17T17:06:19.088Z,68.88
2022-10-17T17:08:45.635Z,69.00
2022-10-17T17:11:14.428Z,68.28
2022-10-17T17:13:41.341Z,68.34
2022-10-17T17:16:16.040Z,68.40
2022-10-17T17:18:43.424Z,68.47
2022-10-17T17:21:10.677Z,68.36
2022-10-17T17:23:40.668Z,67.82
2022-10-17T17:26:18.739Z,67.87
2022-10-17T17:28:45.938Z,67.72
2022-10-17T17:31:18.342Z,67.19
2022-10-17T17:33:46.685Z,67.62
2022-10-17T17:36:17.129Z,67.25
2022-10-17T17:38:44.008Z,67.37
2022-10-17T17:41:15.229Z,67.72
2022-10-17T17:43:43.060Z,67.55
2022-10-17T17:46:09.846Z,67.88
2022-10-17T17:48:40.928Z,67.87
2022-10-17T17:51:10.242Z,67.95
2022-10-17T17:53:37.355Z,68.77
2022-10-17T17:56:06.564Z,68.06
2022-10-17T17:58:34.106Z,68.51
2022-10-17T18:01:01.887Z,68.89
2022-10-17T18:03:28.462Z,68.04
2022-10-17T18:05:54.911Z,69.11
2022-10-17T18:08:21.358Z,68.97
2022-10-17T18:10:54.467Z,68.75
2022-10-17T18:13:20.996Z,68.06
2022-10-17T18:15:48.819Z,68.45
2022-10-17T18:18:15.306Z,69.24
2022-10-17T18:20:42.809Z,69.16
2022-10-17T18:23:10.411Z,69.74
2022-10-17T18:25:37.207Z,70.02
2022-10-17T18:28:04.155Z,70.61
2022-10-17T18:30:33.741Z,71.04
2022-10-17T18:33:01.092Z,71.84
2022-10-17T18:35:27.525Z,71.07
2022-10-17T18:37:56.693Z,70.47
2022-10-17T18:40:23.142Z,70.17
2022-10-17T18:42:49.575Z,69.68
2022-10-17T18:45:17.332Z,69.43
2022-10-17T18:47:47.063Z,69.29
2022-10-17T18:50:14.430Z,70.91
2022-10-17T18:52:40.909Z,70.01
2022-10-17T18:55:07.830Z,69.86
2022-10-17T18:57:34.299Z,70.23
2022-10-17T19:00:00.806Z,70.21
2022-10-17T19:02:27.222Z,70.76
2022-10-17T19:04:53.657Z,70.36
2022-10-17T19:07:20.251Z,70.97
2022-10-17T19:09:48.583Z,69.81
2022-10-17T19:12:15.741Z,69.94
2022-10-17T19:14:42.195Z,70.43
2022-10-17T19:17:08.758Z,69.56
2022-10-17T19:19:35.787Z,70.39
2022-10-17T19:22:03.410Z,73.26
2022-10-17T19:24:30.012Z,72.32
2022-10-17T19:26:58.300Z,71.32
2022-10-17T19:29:27.936Z,70.53
2022-10-17T19:34:27.614Z,70.47
2022-10-17T19:36:55.672Z,70.68
2022-10-17T19:39:23.824Z,70.41
2022-10-17T19:41:50.413Z,69.89
2022-10-17T19:44:17.305Z,73.71
2022-10-17T19:46:48.906Z,73.24
2022-10-17T19:49:16.238Z,71.03
2022-10-17T19:51:42.823Z,70.17
2022-10-17T19:54:09.695Z,69.91
2022-10-17T19:56:37.995Z,69.58
2022-10-17T19:59:06.260Z,69.65
2022-10-17T20:01:35.799Z,69.87
2022-10-17T20:04:02.393Z,69.50
2022-10-17T20:06:28.911Z,68.95
2022-10-17T20:08:55.492Z,69.69
2022-10-17T20:11:25.095Z,69.60
2022-10-17T20:13:52.556Z,69.33
2022-10-17T20:16:22.612Z,70.04
2022-10-17T20:18:55.222Z,70.37
2022-10-17T20:21:27.199Z,70.56
2022-10-17T20:23:54.964Z,71.28
2022-10-17T20:26:37.535Z,71.12
2022-10-17T20:29:08.555Z,70.46
2022-10-17T20:31:35.216Z,70.66
2022-10-17T20:34:01.682Z,70.81
2022-10-17T20:36:28.113Z,70.64
2022-10-17T20:38:59.019Z,71.00
2022-10-17T20:41:26.492Z,70.62
2022-10-17T20:43:54.570Z,70.83
2022-10-17T20:46:35.937Z,71.59
2022-10-17T20:49:05.058Z,71.83
2022-10-17T20:51:31.546Z,71.39
2022-10-17T20:53:58.116Z,71.34
2022-10-17T20:56:27.185Z,71.10
2022-10-17T20:58:55.409Z,71.47
2022-10-17T21:01:22.546Z,71.11
2022-10-17T21:03:49.282Z,71.24
2022-10-17T21:06:17.444Z,71.71
2022-10-17T21:08:44.983Z,70.90
2022-10-17T21:11:20.012Z,73.26
2022-10-17T21:13:47.925Z,73.15
2022-10-17T21:16:17.236Z,72.20
2022-10-17T21:18:44.466Z,72.56
2022-10-17T21:21:18.106Z,70.96
2022-10-17T21:23:46.795Z,71.76
2022-10-17T21:26:14.012Z,72.56
2022-10-17T21:28:41.323Z,73.29
2022-10-17T21:31:25.869Z,71.31
2022-10-17T21:34:00.366Z,73.10
2022-10-17T21:36:28.110Z,72.86
2022-10-17T21:38:56.960Z,72.66
2022-10-17T21:41:26.182Z,72.51
2022-10-17T21:43:54.764Z,71.36
2022-10-17T21:46:21.906Z,73.20
2022-10-17T21:48:49.439Z,72.35
2022-10-17T21:51:18.463Z,73.25
2022-10-17T21:53:45.480Z,73.03
2022-10-17T21:56:15.312Z,72.05
2022-10-17T21:58:42.675Z,71.73
2022-10-17T22:01:29.883Z,76.00
2022-10-17T22:03:59.319Z,73.22
2022-10-17T22:06:44.764Z,73.80
2022-10-17T22:09:23.199Z,72.30
2022-10-17T22:11:54.294Z,75.83
2022-10-17T22:14:22.288Z,74.76
2022-10-17T22:16:49.385Z,76.24
2022-10-17T22:19:20.263Z,74.85
2022-10-17T22:21:46.897Z,73.50
2022-10-17T22:24:15.296Z,73.57
2022-10-17T22:26:42.871Z,74.71
2022-10-17T22:29:09.629Z,75.68
2022-10-17T22:31:37.540Z,74.66
2022-10-17T22:34:05.452Z,72.91
2022-10-17T22:36:32.926Z,74.00
2022-10-17T22:38:59.350Z,74.80
2022-10-17T22:41:25.845Z,75.11
2022-10-17T22:43:52.264Z,74.33
2022-10-17T22:46:18.888Z,74.94
2022-10-17T22:48:45.672Z,76.42
2022-10-17T22:51:12.267Z,76.32
2022-10-17T22:53:39.358Z,76.25
2022-10-17T22:56:09.595Z,74.93
2022-10-17T22:58:36.418Z,75.77
2022-10-17T23:01:03.792Z,76.69
2022-10-17T23:03:31.391Z,75.03
2022-10-17T23:05:58.240Z,74.25
2022-10-17T23:08:24.736Z,75.13
2022-10-17T23:10:51.208Z,74.31
2022-10-17T23:13:18.792Z,74.35
2022-10-17T23:15:45.662Z,74.54
2022-10-17T23:18:12.140Z,74.58
2022-10-17T23:20:38.585Z,75.04
2022-10-17T23:23:05.118Z,74.36
2022-10-17T23:25:34.228Z,76.21
2022-10-17T23:28:01.644Z,76.48
2022-10-17T23:30:28.518Z,73.67
2022-10-17T23:32:54.938Z,73.15
2022-10-17T23:35:21.361Z,74.73
2022-10-17T23:37:47.779Z,74.52
2022-10-17T23:40:14.387Z,75.22
2022-10-17T23:42:40.834Z,75.44
2022-10-17T23:45:07.984Z,76.69
2022-10-17T23:47:34.462Z,76.95
2022-10-17T23:50:01.085Z,76.49
2022-10-17T23:52:27.525Z,75.67
2022-10-17T23:54:53.993Z,75.95
2022-10-17T23:57:20.538Z,76.31
2022-10-17T23:59:47.149Z,75.99
